Time;durP1;ratioP1;P1;durP2;ratioP2;P2;SDS_P1;SDS_P2;PMS_P1;PMS_P2;Temp;Humidity;BMP_temperature;BMP_pressure;BME280_temperature;BME280_humidity;BME280_pressure;Samples;Min_cycle;Max_cycle;Signal;HPM_P1;HPM_P2
2023/02/26 00:01:54;;;;;;;;;;;20.20;74.10;;;;;;1894739;76;20147;-83
2023/02/26 00:04:23;;;;;;;;;;;20.20;73.90;;;;;;1850233;77;20210;-83
2023/02/26 00:06:53;;;;;;;;;;;20.20;74.40;;;;;;1857197;77;20228;-83
2023/02/26 00:09:24;;;;;;;;;;;20.20;74.70;;;;;;1853962;77;20554;-85
2023/02/26 00:11:54;;;;;;;;;;;20.20;74.70;;;;;;1857879;77;20201;-84
2023/02/26 00:14:25;;;;;;;;;;;20.20;74.60;;;;;;1904599;75;20185;-84
2023/02/26 00:16:56;;;;;;;;;;;20.20;74.50;;;;;;1906597;75;20182;-73
2023/02/26 00:19:26;;;;;;;;;;;20.20;74.30;;;;;;1869356;77;20173;-73
2023/02/26 00:21:56;;;;;;;;;;;20.20;75.00;;;;;;1873263;76;20197;-74
2023/02/26 00:24:26;;;;;;;;;;;20.20;74.20;;;;;;1863922;77;20546;-75
2023/02/26 00:26:56;;;;;;;;;;;20.10;74.50;;;;;;1865013;77;20168;-75
2023/02/26 00:29:27;;;;;;;;;;;20.10;74.10;;;;;;1865071;76;20173;-74
2023/02/26 00:34:47;;;;;;;;;;;20.20;74.00;;;;;;1890880;75;20562;-74
2023/02/26 00:37:18;;;;;;;;;;;20.20;73.40;;;;;;1879523;76;20210;-74
2023/02/26 00:39:49;;;;;;;;;;;20.30;73.30;;;;;;1903130;75;20201;-73
2023/02/26 00:42:21;;;;;;;;;;;20.30;73.30;;;;;;1900919;75;20198;-73
2023/02/26 00:44:51;;;;;;;;;;;20.40;72.80;;;;;;1900690;74;20200;-73
2023/02/26 00:47:26;;;;;;;;;;;20.40;72.10;;;;;;1922727;74;20200;-73
2023/02/26 00:50:02;;;;;;;;;;;20.50;72.00;;;;;;1860728;77;20227;-74
2023/02/26 00:52:34;;;;;;;;;;;20.50;71.90;;;;;;1986540;72;20193;-72
2023/02/26 00:55:03;;;;;;;;;;;20.60;71.80;;;;;;1988694;72;20182;-72
2023/02/26 00:57:36;;;;;;;;;;;20.70;71.00;;;;;;1953221;73;20217;-72
2023/02/26 01:00:07;;;;;;;;;;;20.70;69.70;;;;;;1961246;72;20177;-73
2023/02/26 01:02:37;;;;;;;;;;;20.80;69.90;;;;;;1975171;72;20489;-74
2023/02/26 01:05:14;;;;;;;;;;;20.80;68.80;;;;;;1985284;72;20279;-74
2023/02/26 01:07:45;;;;;;;;;;;20.80;68.10;;;;;;1982588;72;20222;-74
2023/02/26 01:10:15;;;;;;;;;;;20.80;67.70;;;;;;1969794;72;20177;-73
2023/02/26 01:12:46;;;;;;;;;;;20.90;67.10;;;;;;1981887;72;20177;-73
2023/02/26 01:15:17;;;;;;;;;;;20.80;67.30;;;;;;1984962;72;20217;-74
2023/02/26 01:17:52;;;;;;;;;;;20.90;67.20;;;;;;1980786;72;20192;-75
2023/02/26 01:20:23;;;;;;;;;;;20.90;67.20;;;;;;1976006;72;20203;-74
2023/02/26 01:22:57;;;;;;;;;;;21.00;67.00;;;;;;1975986;72;20235;-73
2023/02/26 01:25:28;;;;;;;;;;;21.00;66.80;;;;;;1953215;73;20186;-73
2023/02/26 01:27:58;;;;;;;;;;;21.10;65.50;;;;;;1959997;72;20215;-73
2023/02/26 01:30:28;;;;;;;;;;;21.10;63.00;;;;;;1988338;72;20233;-73
2023/02/26 01:33:23;;;;;;;;;;;21.10;63.10;;;;;;1987705;72;20177;-73
2023/02/26 01:35:54;;;;;;;;;;;21.10;63.30;;;;;;1957576;72;20214;-72
2023/02/26 01:38:41;;;;;;;;;;;21.10;63.10;;;;;;1949886;72;20236;-74
2023/02/26 01:41:15;;;;;;;;;;;21.20;63.40;;;;;;1946061;74;20199;-73
2023/02/26 01:43:55;;;;;;;;;;;21.20;63.10;;;;;;1964270;72;20161;-75
2023/02/26 01:46:42;;;;;;;;;;;21.30;63.10;;;;;;1978596;72;20236;-75
2023/02/26 01:49:16;;;;;;;;;;;21.30;62.10;;;;;;1955348;72;20294;-74
2023/02/26 01:51:47;;;;;;;;;;;21.30;62.20;;;;;;1948246;73;20150;-75
2023/02/26 01:54:18;;;;;;;;;;;21.40;62.50;;;;;;1907220;75;20267;-76
2023/02/26 01:56:50;;;;;;;;;;;21.40;61.50;;;;;;1904946;74;20218;-74
2023/02/26 01:59:31;;;;;;;;;;;21.50;61.70;;;;;;1904261;74;20265;-77
2023/02/26 02:02:02;;;;;;;;;;;21.60;61.10;;;;;;1918115;74;20267;-74
2023/02/26 02:04:33;;;;;;;;;;;21.60;61.20;;;;;;1929378;73;20188;-74
2023/02/26 02:07:03;;;;;;;;;;;21.60;60.90;;;;;;1942372;74;20222;-75
2023/02/26 02:09:36;;;;;;;;;;;21.60;61.20;;;;;;1941094;74;20309;-74
2023/02/26 02:12:10;;;;;;;;;;;21.70;61.50;;;;;;1932482;74;20195;-75
2023/02/26 02:14:56;;;;;;;;;;;21.70;61.00;;;;;;1977042;72;20247;-75
2023/02/26 02:17:28;;;;;;;;;;;21.80;60.60;;;;;;1967012;72;20189;-74
2023/02/26 02:20:09;;;;;;;;;;;21.90;60.40;;;;;;1985164;72;20122;-73
2023/02/26 02:22:58;;;;;;;;;;;22.00;60.60;;;;;;1980505;72;20356;-74
2023/02/26 02:25:46;;;;;;;;;;;22.00;60.20;;;;;;1984610;72;20167;-75
2023/02/26 02:28:17;;;;;;;;;;;22.10;59.80;;;;;;1985951;72;20151;-76
2023/02/26 02:30:51;;;;;;;;;;;22.20;59.40;;;;;;1983807;71;20179;-73
2023/02/26 02:33:22;;;;;;;;;;;22.30;59.00;;;;;;1985540;72;20521;-75
2023/02/26 02:35:56;;;;;;;;;;;22.40;59.50;;;;;;1915260;75;20183;-74
2023/02/26 02:38:28;;;;;;;;;;;22.50;59.30;;;;;;1907273;75;20130;-75
2023/02/26 02:40:59;;;;;;;;;;;22.60;58.70;;;;;;1906163;75;20190;-74
2023/02/26 02:43:31;;;;;;;;;;;22.70;58.50;;;;;;1906220;75;20174;-75
2023/02/26 02:49:01;;;;;;;;;;;22.90;56.70;;;;;;1841739;77;20201;-73
2023/02/26 02:51:41;;;;;;;;;;;22.90;56.90;;;;;;1904559;75;20205;-74
2023/02/26 02:54:12;;;;;;;;;;;22.90;57.10;;;;;;1888570;74;20177;-75
2023/02/26 02:56:46;;;;;;;;;;;23.00;56.80;;;;;;1920806;74;20184;-75
2023/02/26 02:59:19;;;;;;;;;;;23.10;57.00;;;;;;1922160;74;20220;-75
2023/02/26 03:04:40;;;;;;;;;;;23.20;56.30;;;;;;1880737;75;20172;-75
2023/02/26 03:07:10;;;;;;;;;;;23.20;56.40;;;;;;1883191;76;20223;-75
2023/02/26 03:09:40;;;;;;;;;;;23.30;56.10;;;;;;1880361;76;20207;-76
2023/02/26 03:12:10;;;;;;;;;;;23.40;56.60;;;;;;1884373;76;20214;-75
2023/02/26 03:14:40;;;;;;;;;;;23.40;56.20;;;;;;1869600;75;20212;-75
2023/02/26 03:17:21;;;;;;;;;;;23.50;55.50;;;;;;1872930;76;20226;-74
2023/02/26 03:20:10;;;;;;;;;;;23.60;55.30;;;;;;1878215;76;20220;-75
2023/02/26 03:22:53;;;;;;;;;;;23.70;55.50;;;;;;1861722;75;20242;-73
2023/02/26 03:25:20;;;;;;;;;;;23.90;56.00;;;;;;1868061;76;20591;-74
2023/02/26 03:27:55;;;;;;;;;;;24.00;55.10;;;;;;1859599;77;20176;-75
2023/02/26 03:30:35;;;;;;;;;;;24.10;54.30;;;;;;1859724;77;20232;-74
2023/02/26 03:33:16;;;;;;;;;;;24.20;54.10;;;;;;1829763;77;20265;-74
2023/02/26 03:35:53;;;;;;;;;;;24.30;53.80;;;;;;1844312;77;20173;-75
2023/02/26 03:38:27;;;;;;;;;;;24.40;53.70;;;;;;1858759;77;20482;-75
2023/02/26 03:41:01;;;;;;;;;;;24.50;53.80;;;;;;1834538;77;20208;-74
2023/02/26 03:43:35;;;;;;;;;;;24.60;53.90;;;;;;1791603;79;20200;-74
2023/02/26 03:46:04;;;;;;;;;;;24.70;54.00;;;;;;1820971;79;20178;-76
2023/02/26 03:48:35;;;;;;;;;;;24.80;52.60;;;;;;1807626;79;20212;-75
2023/02/26 03:51:06;;;;;;;;;;;24.90;53.20;;;;;;1805403;79;20347;-75
2023/02/26 03:53:45;;;;;;;;;;;25.00;52.60;;;;;;1779331;80;20526;-75
2023/02/26 03:56:19;;;;;;;;;;;25.00;52.50;;;;;;1737524;78;20252;-75
2023/02/26 03:58:49;;;;;;;;;;;25.10;52.30;;;;;;1873092;76;20681;-75
2023/02/26 04:01:20;;;;;;;;;;;25.10;51.90;;;;;;1860943;76;20578;-74
2023/02/26 04:03:55;;;;;;;;;;;25.20;51.70;;;;;;1849958;76;20201;-74
2023/02/26 04:06:26;;;;;;;;;;;25.20;51.90;;;;;;1863260;77;20225;-75
2023/02/26 04:08:56;;;;;;;;;;;25.30;52.10;;;;;;1860932;77;20131;-75
2023/02/26 04:11:27;;;;;;;;;;;25.40;52.00;;;;;;1836990;77;20649;-74
2023/02/26 04:13:57;;;;;;;;;;;25.60;52.50;;;;;;1831591;77;20485;-75
2023/02/26 04:16:27;;;;;;;;;;;25.70;51.50;;;;;;1828842;78;20310;-75
2023/02/26 04:18:57;;;;;;;;;;;25.80;51.30;;;;;;1828739;78;20178;-76
2023/02/26 04:21:27;;;;;;;;;;;25.90;51.90;;;;;;1838349;77;20304;-74
2023/02/26 04:23:56;;;;;;;;;;;26.00;51.10;;;;;;1837801;77;20177;-76
2023/02/26 04:29:16;;;;;;;;;;;26.30;50.50;;;;;;1954939;73;20187;-76
2023/02/26 04:31:46;;;;;;;;;;;26.40;50.00;;;;;;1955204;73;20187;-76
2023/02/26 04:34:16;;;;;;;;;;;26.50;49.50;;;;;;1907837;75;20178;-75
2023/02/26 04:36:46;;;;;;;;;;;26.50;49.80;;;;;;1910654;74;20299;-75
2023/02/26 04:39:16;;;;;;;;;;;26.50;49.80;;;;;;1924601;74;20173;-75
2023/02/26 04:41:46;;;;;;;;;;;26.60;49.70;;;;;;1915326;74;20590;-75
2023/02/26 04:44:16;;;;;;;;;;;26.70;50.00;;;;;;1912574;74;20186;-75
2023/02/26 04:46:51;;;;;;;;;;;26.90;49.20;;;;;;1891996;75;20183;-74
2023/02/26 04:49:18;;;;;;;;;;;26.90;48.50;;;;;;1955801;71;20513;-74
2023/02/26 04:51:48;;;;;;;;;;;27.00;48.70;;;;;;1913409;73;20248;-75
2023/02/26 04:54:18;;;;;;;;;;;27.00;48.10;;;;;;1903890;73;20179;-76
2023/02/26 04:56:48;;;;;;;;;;;27.10;48.80;;;;;;1934173;73;20207;-76
2023/02/26 04:59:18;;;;;;;;;;;27.10;48.80;;;;;;1932277;73;20216;-76
2023/02/26 05:01:49;;;;;;;;;;;27.10;48.50;;;;;;1925994;73;20562;-75
2023/02/26 05:04:19;;;;;;;;;;;27.10;48.00;;;;;;1939502;73;20178;-76
2023/02/26 05:06:49;;;;;;;;;;;27.20;48.60;;;;;;1903262;74;20176;-75
2023/02/26 05:09:19;;;;;;;;;;;27.20;48.60;;;;;;1898931;75;20198;-75
2023/02/26 05:11:49;;;;;;;;;;;27.30;48.20;;;;;;1886216;75;20223;-76
2023/02/26 05:14:21;;;;;;;;;;;27.40;48.30;;;;;;1916469;74;20181;-76
2023/02/26 05:16:50;;;;;;;;;;;27.40;47.60;;;;;;1866520;74;20217;-75
2023/02/26 05:19:20;;;;;;;;;;;27.50;47.50;;;;;;1925854;74;20587;-76
2023/02/26 05:21:51;;;;;;;;;;;27.60;48.30;;;;;;1937811;73;20205;-76
2023/02/26 05:24:21;;;;;;;;;;;27.60;48.00;;;;;;1942803;73;20177;-76
2023/02/26 05:26:52;;;;;;;;;;;27.60;48.10;;;;;;1923657;75;20226;-75
2023/02/26 05:29:21;;;;;;;;;;;27.60;47.30;;;;;;1918866;75;20229;-75
2023/02/26 05:31:51;;;;;;;;;;;27.70;47.50;;;;;;1918410;75;20240;-74
2023/02/26 05:34:21;;;;;;;;;;;27.70;47.60;;;;;;1918424;75;20247;-77
2023/02/26 05:36:52;;;;;;;;;;;27.80;47.50;;;;;;1933448;73;20230;-76
2023/02/26 05:39:22;;;;;;;;;;;27.80;47.10;;;;;;1947855;73;20202;-76
2023/02/26 05:41:54;;;;;;;;;;;27.90;46.60;;;;;;1950594;73;20240;-76
2023/02/26 05:44:27;;;;;;;;;;;27.90;46.60;;;;;;1904000;75;20215;-77
2023/02/26 05:46:57;;;;;;;;;;;28.00;46.20;;;;;;1886567;75;20178;-75
2023/02/26 05:49:27;;;;;;;;;;;27.90;46.90;;;;;;1900800;75;20170;-77
2023/02/26 05:51:57;;;;;;;;;;;28.00;47.20;;;;;;1849539;77;20645;-75
2023/02/26 05:54:27;;;;;;;;;;;27.90;46.90;;;;;;1883126;76;20207;-77
2023/02/26 05:56:57;;;;;;;;;;;28.00;47.50;;;;;;1905000;75;20215;-77
2023/02/26 05:59:27;;;;;;;;;;;27.90;46.80;;;;;;1833914;76;20577;-76
2023/02/26 06:01:57;;;;;;;;;;;28.00;47.00;;;;;;1928722;74;20205;-76
2023/02/26 06:04:27;;;;;;;;;;;28.00;46.40;;;;;;1918699;75;20209;-77
2023/02/26 06:07:04;;;;;;;;;;;28.00;46.30;;;;;;1919306;73;20200;-76
2023/02/26 06:09:34;;;;;;;;;;;28.00;46.00;;;;;;1945275;73;20194;-75
2023/02/26 06:12:04;;;;;;;;;;;28.00;46.30;;;;;;1952250;73;20237;-75
2023/02/26 06:14:34;;;;;;;;;;;28.00;46.90;;;;;;1948741;73;20206;-79
2023/02/26 06:17:04;;;;;;;;;;;28.00;46.70;;;;;;1949913;73;20342;-75
2023/02/26 06:19:34;;;;;;;;;;;28.00;46.30;;;;;;1937130;72;20179;-77
2023/02/26 06:22:04;;;;;;;;;;;28.00;46.40;;;;;;1993839;72;20212;-75
2023/02/26 06:24:34;;;;;;;;;;;28.00;46.20;;;;;;1943722;72;20163;-76
2023/02/26 06:27:04;;;;;;;;;;;28.00;46.50;;;;;;1937469;72;20329;-75
2023/02/26 06:29:36;;;;;;;;;;;28.10;46.20;;;;;;1918668;75;20256;-75
2023/02/26 06:32:06;;;;;;;;;;;28.10;45.70;;;;;;1918472;75;20267;-75
2023/02/26 06:34:36;;;;;;;;;;;28.20;45.50;;;;;;1947141;72;20228;-76
2023/02/26 06:37:06;;;;;;;;;;;28.20;45.60;;;;;;1942848;72;20435;-76
2023/02/26 06:39:38;;;;;;;;;;;28.10;45.90;;;;;;1924252;73;20175;-75
2023/02/26 06:42:08;;;;;;;;;;;28.10;45.80;;;;;;1915644;74;20172;-75
2023/02/26 06:44:38;;;;;;;;;;;28.10;46.20;;;;;;1933959;74;20207;-76
2023/02/26 06:47:10;;;;;;;;;;;28.10;45.70;;;;;;1937181;74;20207;-76
2023/02/26 06:49:39;;;;;;;;;;;28.10;46.80;;;;;;1937275;74;20152;-75
2023/02/26 06:52:09;;;;;;;;;;;28.10;46.20;;;;;;1916276;74;20507;-75
2023/02/26 06:54:39;;;;;;;;;;;28.20;46.40;;;;;;1879956;74;20249;-75
2023/02/26 06:57:10;;;;;;;;;;;28.20;45.50;;;;;;1874667;75;20199;-76
2023/02/26 06:59:40;;;;;;;;;;;28.20;45.40;;;;;;1842082;78;20261;-76
2023/02/26 07:02:11;;;;;;;;;;;28.20;45.70;;;;;;1871715;77;20203;-76
2023/02/26 07:04:41;;;;;;;;;;;28.20;45.60;;;;;;1879623;75;20206;-74
2023/02/26 07:07:12;;;;;;;;;;;28.30;44.90;;;;;;1916028;75;20165;-75
2023/02/26 07:09:42;;;;;;;;;;;28.30;44.90;;;;;;1874800;75;20170;-75
2023/02/26 07:12:13;;;;;;;;;;;28.20;45.40;;;;;;1890689;73;20245;-75
2023/02/26 07:14:44;;;;;;;;;;;28.20;45.60;;;;;;1966886;72;20244;-76
2023/02/26 07:17:19;;;;;;;;;;;28.20;45.80;;;;;;1958380;72;20233;-74
2023/02/26 07:19:45;;;;;;;;;;;28.20;45.10;;;;;;1962323;72;20550;-75
2023/02/26 07:22:16;;;;;;;;;;;28.20;45.30;;;;;;1916612;73;20199;-75
2023/02/26 07:24:47;;;;;;;;;;;28.20;44.70;;;;;;1911166;73;20483;-74
2023/02/26 07:27:18;;;;;;;;;;;28.20;45.30;;;;;;1911376;73;20177;-75
2023/02/26 07:29:47;;;;;;;;;;;28.20;45.00;;;;;;1898684;75;20152;-75
2023/02/26 07:32:18;;;;;;;;;;;28.20;45.20;;;;;;1876636;75;20238;-75
2023/02/26 07:34:48;;;;;;;;;;;28.20;45.20;;;;;;1911158;75;20205;-75
2023/02/26 07:37:19;;;;;;;;;;;28.20;45.40;;;;;;1901278;75;20595;-75
2023/02/26 07:39:49;;;;;;;;;;;28.20;45.60;;;;;;1874330;75;20270;-75
2023/02/26 07:42:19;;;;;;;;;;;28.20;45.10;;;;;;1899403;74;20234;-74
2023/02/26 07:44:49;;;;;;;;;;;28.20;45.50;;;;;;1878831;76;20176;-75
2023/02/26 07:47:19;;;;;;;;;;;28.20;45.40;;;;;;1870871;74;20254;-75
2023/02/26 07:49:49;;;;;;;;;;;28.20;45.00;;;;;;1923643;74;20610;-75
2023/02/26 07:52:19;;;;;;;;;;;28.20;45.00;;;;;;1891461;75;20201;-74
2023/02/26 07:54:49;;;;;;;;;;;28.10;44.90;;;;;;1884909;75;20555;-75
2023/02/26 07:57:19;;;;;;;;;;;28.10;45.00;;;;;;1893397;75;20233;-75
2023/02/26 07:59:50;;;;;;;;;;;28.10;45.10;;;;;;1880572;75;20324;-75
2023/02/26 08:02:22;;;;;;;;;;;28.00;45.20;;;;;;1874002;75;20205;-75
2023/02/26 08:04:52;;;;;;;;;;;28.00;45.50;;;;;;1910128;75;20201;-74
2023/02/26 08:07:24;;;;;;;;;;;28.00;45.50;;;;;;1858326;76;20281;-75
2023/02/26 08:09:59;;;;;;;;;;;28.00;45.50;;;;;;1864952;77;20267;-75
2023/02/26 08:12:26;;;;;;;;;;;28.00;45.40;;;;;;1867609;75;20303;-75
2023/02/26 08:14:56;;;;;;;;;;;28.00;45.60;;;;;;1879863;76;20129;-75
2023/02/26 08:17:26;;;;;;;;;;;28.00;45.50;;;;;;1867548;75;20169;-74
2023/02/26 08:19:58;;;;;;;;;;;28.00;45.60;;;;;;1872627;76;20235;-73
2023/02/26 08:22:28;;;;;;;;;;;28.00;46.30;;;;;;1866437;76;20220;-73
2023/02/26 08:25:01;;;;;;;;;;;28.00;45.70;;;;;;1865007;76;20237;-75
2023/02/26 08:27:31;;;;;;;;;;;28.00;45.40;;;;;;1881226;76;20113;-74
2023/02/26 08:30:06;;;;;;;;;;;28.00;45.10;;;;;;1908218;75;20553;-75
2023/02/26 08:32:38;;;;;;;;;;;28.00;46.00;;;;;;1873992;74;20258;-74
2023/02/26 08:35:09;;;;;;;;;;;27.90;46.10;;;;;;1908249;75;20166;-74
2023/02/26 08:37:39;;;;;;;;;;;28.00;46.60;;;;;;1900759;74;20219;-74
2023/02/26 08:40:10;;;;;;;;;;;28.00;46.20;;;;;;1879773;74;20576;-75
2023/02/26 08:42:42;;;;;;;;;;;28.00;45.90;;;;;;1873835;74;20209;-74
2023/02/26 08:45:12;;;;;;;;;;;28.00;46.30;;;;;;1882177;76;20631;-75
2023/02/26 08:47:42;;;;;;;;;;;28.00;46.10;;;;;;1887185;76;20344;-74
2023/02/26 08:50:13;;;;;;;;;;;28.00;46.30;;;;;;1888022;75;20177;-74
2023/02/26 08:52:43;;;;;;;;;;;28.00;46.30;;;;;;1889778;76;20243;-75
2023/02/26 08:55:13;;;;;;;;;;;27.90;45.90;;;;;;1888736;75;20544;-77
2023/02/26 08:57:43;;;;;;;;;;;28.00;46.00;;;;;;1891436;74;20168;-75
2023/02/26 09:03:03;;;;;;;;;;;27.90;46.10;;;;;;1795265;79;20224;-72
2023/02/26 09:05:33;;;;;;;;;;;27.90;46.60;;;;;;1817714;78;20229;-73
2023/02/26 09:08:03;;;;;;;;;;;27.90;47.10;;;;;;1819235;78;20342;-74
2023/02/26 09:10:34;;;;;;;;;;;28.00;46.70;;;;;;1818478;78;20253;-74
2023/02/26 09:13:08;;;;;;;;;;;28.00;46.50;;;;;;1819321;78;20225;-73
2023/02/26 09:15:35;;;;;;;;;;;27.90;45.70;;;;;;1800329;78;20200;-74
2023/02/26 09:18:05;;;;;;;;;;;28.00;46.00;;;;;;1816393;78;20178;-74
2023/02/26 09:20:35;;;;;;;;;;;27.90;46.20;;;;;;1821032;78;20266;-74
2023/02/26 09:23:05;;;;;;;;;;;27.80;46.20;;;;;;1821780;78;20181;-73
2023/02/26 09:25:36;;;;;;;;;;;27.90;46.40;;;;;;1817481;78;20312;-74
2023/02/26 09:28:09;;;;;;;;;;;27.80;46.40;;;;;;1818238;78;20469;-73
2023/02/26 09:30:39;;;;;;;;;;;27.80;46.50;;;;;;1811504;78;20194;-73
2023/02/26 09:33:09;;;;;;;;;;;27.80;46.30;;;;;;1795157;79;20192;-75
2023/02/26 09:35:40;;;;;;;;;;;27.70;46.50;;;;;;1813337;77;20179;-74
2023/02/26 09:38:10;;;;;;;;;;;27.70;46.70;;;;;;1852757;76;20335;-76
2023/02/26 09:41:03;;;;;;;;;;;27.70;47.00;;;;;;1819867;78;20187;-74
2023/02/26 09:43:51;;;;;;;;;;;27.60;47.40;;;;;;1848447;76;20176;-74
2023/02/26 09:46:37;;;;;;;;;;;27.60;47.20;;;;;;1818237;76;20647;-72
2023/02/26 09:49:11;;;;;;;;;;;27.60;47.40;;;;;;1818813;78;20253;-74
2023/02/26 09:51:42;;;;;;;;;;;27.50;47.30;;;;;;1816784;76;20527;-74
2023/02/26 09:54:13;;;;;;;;;;;27.50;47.10;;;;;;1835391;76;20240;-74
2023/02/26 09:56:43;;;;;;;;;;;27.50;47.40;;;;;;1814113;78;20242;-72
2023/02/26 09:59:13;;;;;;;;;;;27.50;47.60;;;;;;1804226;77;20173;-73
2023/02/26 10:01:50;;;;;;;;;;;27.40;47.70;;;;;;1823232;76;20350;-74
2023/02/26 10:04:22;;;;;;;;;;;27.50;47.90;;;;;;1858693;77;20200;-74
2023/02/26 10:06:54;;;;;;;;;;;27.40;47.90;;;;;;1849327;77;20203;-75
2023/02/26 10:09:25;;;;;;;;;;;27.40;48.00;;;;;;1843542;76;20211;-74
2023/02/26 10:11:59;;;;;;;;;;;27.40;47.80;;;;;;1841307;77;20198;-73
2023/02/26 10:14:30;;;;;;;;;;;27.30;48.30;;;;;;1842676;76;20184;-73
2023/02/26 10:17:01;;;;;;;;;;;27.30;48.40;;;;;;1859814;76;20231;-74
2023/02/26 10:19:32;;;;;;;;;;;27.30;48.20;;;;;;1864565;77;20176;-73
2023/02/26 10:22:07;;;;;;;;;;;27.20;48.20;;;;;;1765317;79;20206;-72
2023/02/26 10:24:38;;;;;;;;;;;27.20;48.30;;;;;;1837198;76;20181;-73
2023/02/26 10:27:22;;;;;;;;;;;27.20;48.40;;;;;;1872783;75;20294;-73
2023/02/26 10:30:02;;;;;;;;;;;27.10;48.30;;;;;;1858751;77;20170;-73
2023/02/26 10:32:32;;;;;;;;;;;27.10;48.70;;;;;;1852757;77;20631;-80
2023/02/26 10:35:07;;;;;;;;;;;27.00;48.80;;;;;;1843081;76;20176;-81
2023/02/26 10:37:38;;;;;;;;;;;27.00;49.20;;;;;;1816500;77;20237;-81
2023/02/26 10:40:21;;;;;;;;;;;27.00;49.60;;;;;;1783867;79;20202;-82
2023/02/26 10:42:54;;;;;;;;;;;27.00;49.60;;;;;;1814294;79;20124;-81
2023/02/26 10:45:28;;;;;;;;;;;26.90;49.70;;;;;;1805600;77;20252;-83
2023/02/26 10:48:08;;;;;;;;;;;26.90;49.80;;;;;;1798059;79;20430;-83
2023/02/26 10:50:39;;;;;;;;;;;26.90;49.90;;;;;;1798240;78;20222;-82
2023/02/26 10:53:10;;;;;;;;;;;26.90;49.80;;;;;;1793688;79;20216;-82
2023/02/26 10:55:43;;;;;;;;;;;26.90;49.90;;;;;;1797845;79;20232;-83
2023/02/26 10:58:14;;;;;;;;;;;26.80;50.00;;;;;;1800368;78;20440;-83
2023/02/26 11:00:45;;;;;;;;;;;26.80;50.20;;;;;;1796309;77;20195;-82
2023/02/26 11:03:16;;;;;;;;;;;26.80;50.60;;;;;;1803139;78;20209;-83
2023/02/26 11:05:47;;;;;;;;;;;26.70;50.50;;;;;;1858477;76;20226;-82
2023/02/26 11:08:34;;;;;;;;;;;26.70;50.60;;;;;;1844256;76;20242;-82
2023/02/26 11:11:04;;;;;;;;;;;26.70;50.70;;;;;;1827003;78;20199;-82
2023/02/26 11:13:35;;;;;;;;;;;26.70;50.80;;;;;;1826905;77;20288;-82
2023/02/26 11:16:06;;;;;;;;;;;26.70;51.10;;;;;;1830483;77;20628;-83
2023/02/26 11:18:37;;;;;;;;;;;26.60;51.10;;;;;;1854275;77;20213;-81
2023/02/26 11:21:07;;;;;;;;;;;26.60;51.30;;;;;;1835513;77;20229;-82
2023/02/26 11:23:38;;;;;;;;;;;26.60;51.50;;;;;;1830796;76;20174;-82
2023/02/26 11:26:09;;;;;;;;;;;26.60;51.80;;;;;;1834065;76;20347;-83
2023/02/26 11:28:40;;;;;;;;;;;26.50;51.90;;;;;;1820326;75;20345;-83
2023/02/26 11:31:11;;;;;;;;;;;26.50;52.20;;;;;;1797232;79;20559;-83
2023/02/26 11:33:42;;;;;;;;;;;26.50;52.40;;;;;;1827067;78;20178;-82
2023/02/26 11:36:16;;;;;;;;;;;26.50;52.40;;;;;;1761530;81;20209;-82
2023/02/26 11:38:47;;;;;;;;;;;26.40;52.60;;;;;;1793134;77;20172;-84
2023/02/26 11:41:20;;;;;;;;;;;26.40;54.00;;;;;;1766701;80;20255;-82
2023/02/26 11:43:49;;;;;;;;;;;26.30;54.80;;;;;;1745905;82;20154;-82
2023/02/26 11:46:20;;;;;;;;;;;26.30;56.00;;;;;;1751998;81;20210;-83
2023/02/26 11:48:50;;;;;;;;;;;26.20;56.70;;;;;;1754885;80;20210;-82
2023/02/26 11:51:21;;;;;;;;;;;26.10;57.10;;;;;;1808343;79;20186;-83
2023/02/26 11:53:53;;;;;;;;;;;26.00;56.70;;;;;;1796932;79;20176;-82
2023/02/26 11:56:27;;;;;;;;;;;25.90;56.80;;;;;;1797056;79;20352;-81
2023/02/26 11:58:58;;;;;;;;;;;25.90;57.10;;;;;;1770475;81;20187;-82
2023/02/26 12:01:28;;;;;;;;;;;25.80;57.10;;;;;;1767080;80;20179;-83
2023/02/26 12:03:59;;;;;;;;;;;25.60;57.20;;;;;;1808692;79;20221;-81
2023/02/26 12:06:29;;;;;;;;;;;25.50;57.20;;;;;;1811789;79;20225;-82
2023/02/26 12:09:03;;;;;;;;;;;25.50;57.50;;;;;;1807298;79;20507;-81
2023/02/26 12:11:33;;;;;;;;;;;25.40;57.50;;;;;;1838616;76;20267;-80
2023/02/26 12:14:21;;;;;;;;;;;25.40;57.70;;;;;;1847529;78;20227;-81
2023/02/26 12:17:01;;;;;;;;;;;25.30;57.70;;;;;;1846744;78;20487;-81
2023/02/26 12:19:35;;;;;;;;;;;25.20;57.80;;;;;;1821413;77;20215;-81
2023/02/26 12:22:05;;;;;;;;;;;25.20;58.10;;;;;;1862489;76;20218;-81
2023/02/26 12:24:51;;;;;;;;;;;25.20;58.40;;;;;;1838396;76;20212;-82
2023/02/26 12:27:26;;;;;;;;;;;25.10;58.30;;;;;;1819316;78;20247;-81
2023/02/26 12:30:09;;;;;;;;;;;25.10;58.50;;;;;;1833016;76;20230;-82
2023/02/26 12:32:46;;;;;;;;;;;25.00;58.70;;;;;;1847989;76;20205;-82
2023/02/26 12:35:20;;;;;;;;;;;25.00;58.70;;;;;;1796402;78;20283;-81
2023/02/26 12:38:00;;;;;;;;;;;25.00;59.00;;;;;;1819385;76;20553;-81
2023/02/26 12:40:46;;;;;;;;;;;24.90;58.90;;;;;;1836637;77;20168;-82
2023/02/26 12:43:22;;;;;;;;;;;24.90;59.00;;;;;;1822855;76;20176;-81
2023/02/26 12:45:58;;;;;;;;;;;25.00;59.10;;;;;;1842092;77;20481;-81
2023/02/26 12:48:46;;;;;;;;;;;25.00;59.00;;;;;;1845646;76;20253;-82
2023/02/26 12:51:35;;;;;;;;;;;25.00;58.90;;;;;;1841434;76;20188;-82
2023/02/26 12:54:22;;;;;;;;;;;25.00;59.00;;;;;;1783269;79;20187;-81
2023/02/26 12:56:59;;;;;;;;;;;25.00;59.00;;;;;;1767228;79;20218;-81
2023/02/26 12:59:30;;;;;;;;;;;24.90;59.00;;;;;;1844181;76;20391;-83
2023/02/26 13:02:04;;;;;;;;;;;24.90;59.20;;;;;;1838985;76;20194;-82
2023/02/26 13:04:35;;;;;;;;;;;24.90;59.20;;;;;;1837250;76;20193;-83
2023/02/26 13:07:26;;;;;;;;;;;24.80;59.20;;;;;;1848736;76;20486;-82
2023/02/26 13:10:01;;;;;;;;;;;24.80;59.20;;;;;;1842781;76;20225;-80
2023/02/26 13:12:32;;;;;;;;;;;24.80;59.40;;;;;;1847318;76;20201;-81
2023/02/26 13:15:03;;;;;;;;;;;24.80;59.40;;;;;;1838089;78;20206;-83
2023/02/26 13:17:47;;;;;;;;;;;24.70;59.40;;;;;;1830046;78;20175;-81
2023/02/26 13:20:17;;;;;;;;;;;24.70;59.40;;;;;;1785355;79;20176;-83
2023/02/26 13:22:54;;;;;;;;;;;24.60;59.30;;;;;;1811410;79;20313;-82
2023/02/26 13:25:25;;;;;;;;;;;24.60;59.30;;;;;;1836254;78;20221;-82
2023/02/26 13:27:56;;;;;;;;;;;24.60;59.30;;;;;;1839711;78;20200;-83
2023/02/26 13:30:27;;;;;;;;;;;24.60;59.30;;;;;;1841209;78;20194;-83
2023/02/26 13:32:57;;;;;;;;;;;24.60;59.30;;;;;;1812910;78;20196;-82
2023/02/26 13:35:29;;;;;;;;;;;24.50;59.30;;;;;;1815371;76;20266;-82
2023/02/26 13:38:00;;;;;;;;;;;24.50;59.20;;;;;;1823372;76;20216;-80
2023/02/26 13:40:31;;;;;;;;;;;24.40;59.30;;;;;;1828736;76;20183;-82
2023/02/26 13:43:02;;;;;;;;;;;24.40;59.30;;;;;;1848253;75;20178;-81
2023/02/26 13:45:35;;;;;;;;;;;24.40;59.30;;;;;;1843757;78;20267;-83
2023/02/26 13:48:21;;;;;;;;;;;24.30;59.30;;;;;;1856978;76;20162;-81
2023/02/26 13:51:05;;;;;;;;;;;24.30;59.30;;;;;;1845043;76;20168;-81
2023/02/26 13:53:38;;;;;;;;;;;24.30;59.40;;;;;;1823587;77;20184;-82
2023/02/26 13:56:09;;;;;;;;;;;24.20;59.40;;;;;;1817568;76;20465;-82
2023/02/26 13:58:39;;;;;;;;;;;24.20;59.50;;;;;;1847581;77;20256;-81
2023/02/26 14:01:19;;;;;;;;;;;24.20;59.70;;;;;;1841530;78;20221;-82
2023/02/26 14:03:50;;;;;;;;;;;24.10;59.60;;;;;;1841802;76;20161;-82
2023/02/26 14:06:39;;;;;;;;;;;24.10;59.60;;;;;;1824301;76;20210;-81
2023/02/26 14:09:26;;;;;;;;;;;24.10;59.70;;;;;;1823345;76;20210;-82
2023/02/26 14:12:05;;;;;;;;;;;24.00;59.80;;;;;;1820044;76;20182;-81
2023/02/26 14:14:32;;;;;;;;;;;24.00;59.90;;;;;;1831696;77;20224;-81
2023/02/26 14:17:09;;;;;;;;;;;23.90;61.00;;;;;;1836811;76;20205;-81
2023/02/26 14:19:40;;;;;;;;;;;23.90;60.10;;;;;;1811297;79;20447;-81
2023/02/26 14:22:22;;;;;;;;;;;23.80;60.10;;;;;;1829084;76;20192;-81
2023/02/26 14:24:53;;;;;;;;;;;23.90;60.30;;;;;;1814777;78;20165;-80
2023/02/26 14:27:28;;;;;;;;;;;23.80;60.30;;;;;;1845481;76;20246;-82
2023/02/26 14:29:59;;;;;;;;;;;23.80;60.40;;;;;;1806768;79;20214;-81
2023/02/26 14:32:47;;;;;;;;;;;23.80;60.40;;;;;;1838154;76;20198;-81
2023/02/26 14:35:27;;;;;;;;;;;23.70;60.50;;;;;;1797921;80;20191;-81
2023/02/26 14:37:58;;;;;;;;;;;23.70;60.60;;;;;;1797693;79;20210;-81
2023/02/26 14:40:29;;;;;;;;;;;23.70;60.70;;;;;;1765202;80;20222;-80
2023/02/26 14:43:00;;;;;;;;;;;23.70;60.90;;;;;;1770075;81;20239;-82
2023/02/26 14:45:31;;;;;;;;;;;23.60;61.00;;;;;;1759065;79;20221;-82
2023/02/26 14:48:02;;;;;;;;;;;23.60;61.00;;;;;;1762076;80;20187;-81
2023/02/26 14:50:50;;;;;;;;;;;23.50;61.10;;;;;;1808376;78;20300;-81
2023/02/26 14:56:37;;;;;;;;;;;23.50;61.60;;;;;;1808965;78;20231;-80
2023/02/26 14:59:24;;;;;;;;;;;23.40;61.60;;;;;;1778667;79;20235;-80
2023/02/26 15:02:15;;;;;;;;;;;23.40;61.90;;;;;;1800287;79;20166;-81
2023/02/26 15:04:46;;;;;;;;;;;23.30;62.00;;;;;;1816966;78;20166;-80
2023/02/26 15:07:34;;;;;;;;;;;23.30;62.10;;;;;;1804549;78;20215;-81